createdAt,value
2023-03-04T00:01:37.324Z,2.21
2023-03-04T00:04:10.559Z,2.22
2023-03-04T00:06:42.836Z,2.21
2023-03-04T00:09:15.950Z,2.21
2023-03-04T00:11:49.337Z,2.23
2023-03-04T00:14:21.848Z,2.21
2023-03-04T00:16:54.157Z,2.14
2023-03-04T00:19:26.461Z,2.09
2023-03-04T00:21:58.897Z,2.08
2023-03-04T00:24:32.591Z,2.05
2023-03-04T00:27:05.071Z,2.04
2023-03-04T00:29:37.804Z,1.99
2023-03-04T00:32:11.715Z,1.96
2023-03-04T00:34:44.179Z,1.93
2023-03-04T00:37:16.815Z,1.87
2023-03-04T00:39:50.192Z,1.88
2023-03-04T00:42:23.283Z,1.91
2023-03-04T00:44:55.981Z,1.92
2023-03-04T00:47:28.489Z,1.90
2023-03-04T00:50:01.958Z,1.92
2023-03-04T00:52:34.973Z,1.92
2023-03-04T00:55:09.447Z,1.89
2023-03-04T00:57:42.648Z,1.88
2023-03-04T01:00:15.749Z,1.93
2023-03-04T01:02:48.433Z,1.93
2023-03-04T01:05:21.613Z,1.94
2023-03-04T01:07:54.178Z,1.93
2023-03-04T01:10:27.745Z,1.93
2023-03-04T01:13:00.657Z,1.91
2023-03-04T01:15:34.632Z,1.88
2023-03-04T01:18:07.837Z,1.85
2023-03-04T01:20:40.747Z,1.81
2023-03-04T01:23:13.047Z,1.79
2023-03-04T01:25:46.684Z,1.74
2023-03-04T01:28:19.399Z,1.71
2023-03-04T01:30:53.636Z,1.70
2023-03-04T01:33:26.190Z,1.67
2023-03-04T01:35:59.150Z,1.68
2023-03-04T01:38:31.626Z,1.67
2023-03-04T01:41:04.310Z,1.65
2023-03-04T01:43:38.623Z,1.62
2023-03-04T01:46:14.589Z,1.56
2023-03-04T01:48:47.803Z,1.54
2023-03-04T01:51:21.221Z,1.52
2023-03-04T01:53:55.095Z,1.49
2023-03-04T01:56:31.242Z,1.46
2023-03-04T01:59:19.017Z,1.42
2023-03-04T02:01:57.829Z,1.39
2023-03-04T02:04:34.515Z,1.40
2023-03-04T02:07:07.952Z,1.34
2023-03-04T02:09:41.231Z,1.37
2023-03-04T02:12:13.818Z,1.35
2023-03-04T02:14:46.579Z,1.30
2023-03-04T02:17:21.270Z,1.27
2023-03-04T02:20:28.313Z,1.22
2023-03-04T02:23:14.314Z,1.20
2023-03-04T02:26:06.432Z,1.16
2023-03-04T02:28:38.951Z,1.13
2023-03-04T02:31:28.203Z,1.08
2023-03-04T02:34:06.900Z,1.07
2023-03-04T02:36:40.113Z,1.03
2023-03-04T02:39:28.069Z,1.01
2023-03-04T02:42:01.112Z,0.98
2023-03-04T02:44:38.012Z,1.01
2023-03-04T02:47:12.423Z,1.02
2023-03-04T02:49:45.558Z,1.05
2023-03-04T02:52:25.445Z,1.03
2023-03-04T02:54:58.350Z,1.03
2023-03-04T02:57:30.957Z,1.02
2023-03-04T03:00:03.485Z,0.99
2023-03-04T03:02:36.666Z,0.98
2023-03-04T03:05:09.677Z,1.00
2023-03-04T03:07:42.130Z,0.99
2023-03-04T03:10:15.664Z,0.98
2023-03-04T03:12:48.486Z,0.99
2023-03-04T03:15:22.026Z,0.99
2023-03-04T03:17:55.172Z,1.00
2023-03-04T03:20:27.938Z,1.00
2023-03-04T03:23:00.789Z,1.03
2023-03-04T03:25:33.438Z,1.06
2023-03-04T03:28:06.031Z,1.09
2023-03-04T03:30:39.145Z,1.12
2023-03-04T03:33:11.797Z,1.15
2023-03-04T03:35:45.570Z,1.14
2023-03-04T03:38:18.620Z,1.19
2023-03-04T03:40:51.781Z,1.23
2023-03-04T03:43:24.398Z,1.24
2023-03-04T03:45:57.101Z,1.23
2023-03-04T03:48:30.390Z,1.26
2023-03-04T03:51:23.944Z,1.25
2023-03-04T03:53:57.451Z,1.28
2023-03-04T03:56:30.020Z,1.29
2023-03-04T03:59:02.715Z,1.32
2023-03-04T04:01:35.444Z,1.34
2023-03-04T04:04:08.021Z,1.34
2023-03-04T04:06:40.643Z,1.34
2023-03-04T04:09:13.077Z,1.30
2023-03-04T04:11:46.290Z,1.29
2023-03-04T04:14:19.205Z,1.30
2023-03-04T04:16:52.430Z,1.34
2023-03-04T04:19:25.038Z,1.35
2023-03-04T04:21:58.213Z,1.39
2023-03-04T04:24:30.980Z,1.39
2023-03-04T04:27:04.679Z,1.40
2023-03-04T04:29:37.872Z,1.41
2023-03-04T04:32:12.207Z,1.46
2023-03-04T04:34:45.226Z,1.48
2023-03-04T04:37:17.630Z,1.57
2023-03-04T04:39:51.965Z,1.64
2023-03-04T04:42:24.920Z,1.71
2023-03-04T04:44:58.127Z,1.78
2023-03-04T04:47:30.605Z,1.82
2023-03-04T04:50:03.316Z,1.87
2023-03-04T04:52:36.488Z,1.85
2023-03-04T04:55:09.307Z,1.83
2023-03-04T04:57:42.520Z,1.77
2023-03-04T05:00:15.584Z,1.77
2023-03-04T05:02:48.817Z,1.81
2023-03-04T05:05:21.774Z,1.87
2023-03-04T05:07:55.633Z,1.88
2023-03-04T05:10:28.059Z,1.90
2023-03-04T05:13:00.560Z,1.94
2023-03-04T05:15:34.164Z,1.99
2023-03-04T05:18:19.338Z,2.02
2023-03-04T05:20:55.061Z,2.05
2023-03-04T05:23:27.874Z,2.05
2023-03-04T05:26:00.274Z,2.10
2023-03-04T05:28:32.820Z,2.15
2023-03-04T05:31:05.986Z,2.16
2023-03-04T05:33:38.797Z,2.21
2023-03-04T05:36:11.417Z,2.16
2023-03-04T05:38:44.364Z,2.07
2023-03-04T05:41:18.659Z,1.99
2023-03-04T05:43:52.040Z,1.96
2023-03-04T05:46:26.068Z,2.00
2023-03-04T05:48:58.534Z,2.02
2023-03-04T05:51:31.245Z,2.03
2023-03-04T05:54:03.866Z,2.05
2023-03-04T05:56:37.291Z,2.07
2023-03-04T05:59:09.838Z,2.19
2023-03-04T06:01:42.803Z,2.30
2023-03-04T06:04:15.418Z,2.47
2023-03-04T06:06:48.866Z,2.85
2023-03-04T06:09:22.531Z,3.07
2023-03-04T06:11:55.409Z,3.06
2023-03-04T06:14:28.883Z,2.97
2023-03-04T06:17:01.798Z,2.88
2023-03-04T06:19:34.242Z,2.71
2023-03-04T06:22:07.834Z,2.62
2023-03-04T06:24:40.727Z,2.54
2023-03-04T06:27:14.031Z,2.50
2023-03-04T06:29:46.813Z,2.49
2023-03-04T06:32:19.674Z,2.49
2023-03-04T06:34:52.413Z,2.48
2023-03-04T06:37:25.288Z,2.48
2023-03-04T06:39:58.352Z,2.55
2023-03-04T06:42:30.781Z,2.56
2023-03-04T06:45:03.711Z,2.55
2023-03-04T06:47:36.891Z,2.56
2023-03-04T06:50:12.215Z,2.60
2023-03-04T06:52:44.573Z,2.65
2023-03-04T06:55:18.570Z,2.70
2023-03-04T06:57:51.756Z,2.74
2023-03-04T07:00:24.777Z,2.74
2023-03-04T07:02:57.299Z,2.76
2023-03-04T07:05:30.879Z,2.77
2023-03-04T07:08:04.120Z,2.88
2023-03-04T07:10:37.274Z,2.95
2023-03-04T07:13:10.960Z,3.05
2023-03-04T07:15:44.036Z,3.10
2023-03-04T07:18:17.023Z,3.16
2023-03-04T07:20:51.107Z,3.18
2023-03-04T07:23:24.312Z,3.25
2023-03-04T07:25:59.366Z,3.39
2023-03-04T07:28:31.784Z,3.45
2023-03-04T07:31:32.893Z,3.47
2023-03-04T07:34:08.618Z,3.47
2023-03-04T07:36:41.901Z,3.51
2023-03-04T07:39:14.858Z,3.60
2023-03-04T07:41:48.384Z,3.64
2023-03-04T07:44:21.531Z,3.65
2023-03-04T07:46:54.475Z,3.65
2023-03-04T07:49:26.974Z,3.62
2023-03-04T07:51:59.841Z,3.71
2023-03-04T07:54:32.189Z,3.76
2023-03-04T07:57:04.612Z,3.76
2023-03-04T07:59:37.589Z,3.80
2023-03-04T08:02:11.569Z,3.82
2023-03-04T08:04:44.655Z,3.87
2023-03-04T08:07:17.323Z,3.88
2023-03-04T08:09:50.531Z,3.90
2023-03-04T08:12:25.087Z,3.96
2023-03-04T08:14:57.665Z,3.94
2023-03-04T08:17:31.472Z,3.88
2023-03-04T08:20:04.421Z,3.82
2023-03-04T08:22:37.666Z,3.81
2023-03-04T08:25:11.152Z,3.79
2023-03-04T08:27:44.859Z,3.83
2023-03-04T08:30:18.752Z,3.88
2023-03-04T08:32:53.054Z,3.95
2023-03-04T08:35:25.586Z,4.01
2023-03-04T08:37:59.693Z,4.08
2023-03-04T08:40:33.558Z,4.11
2023-03-04T08:43:06.744Z,4.07
2023-03-04T08:45:40.411Z,4.02
2023-03-04T08:48:13.576Z,3.97
2023-03-04T08:50:47.567Z,3.93
2023-03-04T08:53:20.509Z,3.98
2023-03-04T08:55:54.323Z,4.07
2023-03-04T08:58:26.926Z,4.16
2023-03-04T09:01:01.440Z,4.19
2023-03-04T09:03:34.609Z,4.29
2023-03-04T09:06:08.088Z,4.34
2023-03-04T09:08:41.122Z,4.33
2023-03-04T09:11:14.469Z,4.28
2023-03-04T09:13:47.629Z,4.27
2023-03-04T09:16:21.787Z,4.34
2023-03-04T09:18:54.112Z,4.43
2023-03-04T09:21:28.043Z,4.46
2023-03-04T09:24:00.503Z,4.44
2023-03-04T09:26:33.330Z,4.36
2023-03-04T09:29:06.754Z,4.35
2023-03-04T09:31:39.747Z,4.29
2023-03-04T09:34:12.600Z,4.24
2023-03-04T09:36:45.320Z,4.25
2023-03-04T09:39:19.497Z,4.34
2023-03-04T09:41:56.734Z,4.45
2023-03-04T09:44:51.483Z,4.53
2023-03-04T09:47:25.564Z,4.63
2023-03-04T09:50:04.192Z,4.61
2023-03-04T09:53:11.744Z,4.60
2023-03-04T09:55:47.778Z,4.62
2023-03-04T09:58:59.736Z,4.63
2023-03-04T10:01:46.172Z,4.64
2023-03-04T10:04:52.821Z,4.65
2023-03-04T10:07:29.443Z,4.56
2023-03-04T10:10:15.693Z,4.55
2023-03-04T10:12:48.972Z,4.55
2023-03-04T10:15:41.710Z,4.60
2023-03-04T10:18:23.827Z,4.57
2023-03-04T10:21:01.495Z,4.36
2023-03-04T10:23:37.797Z,4.26
2023-03-04T10:26:21.009Z,4.31
2023-03-04T10:28:53.328Z,4.32
2023-03-04T10:31:37.986Z,4.33
2023-03-04T10:34:13.133Z,4.33
2023-03-04T10:37:03.258Z,4.20
2023-03-04T10:39:42.660Z,4.10
2023-03-04T10:42:22.753Z,4.02
2023-03-04T10:44:58.761Z,4.03
2023-03-04T10:47:55.604Z,4.10
2023-03-04T10:50:29.228Z,4.09
2023-03-04T10:53:01.717Z,4.21
2023-03-04T10:55:45.771Z,4.53
2023-03-04T10:58:19.428Z,5.01
2023-03-04T11:01:07.189Z,5.45
2023-03-04T11:03:40.951Z,5.64
2023-03-04T11:06:23.132Z,5.93
2023-03-04T11:08:58.988Z,6.27
2023-03-04T11:11:46.174Z,6.55
2023-03-04T11:14:31.134Z,6.63
2023-03-04T11:17:04.605Z,6.52
2023-03-04T11:19:41.113Z,6.25
2023-03-04T11:22:17.376Z,6.11
2023-03-04T11:25:06.452Z,6.01
2023-03-04T11:27:48.607Z,5.90
2023-03-04T11:30:38.010Z,5.75
2023-03-04T11:33:37.238Z,5.48
2023-03-04T11:36:20.380Z,5.30
2023-03-04T11:38:53.629Z,5.13
2023-03-04T11:41:40.073Z,4.96
2023-03-04T11:44:13.677Z,4.80
2023-03-04T11:46:53.888Z,4.73
2023-03-04T11:49:52.148Z,4.73
2023-03-04T11:53:00.298Z,4.72
2023-03-04T11:55:43.582Z,4.68
2023-03-04T11:58:48.409Z,4.69
2023-03-04T12:01:35.330Z,4.67
2023-03-04T12:04:29.325Z,4.75
2023-03-04T12:07:30.859Z,4.83
2023-03-04T12:10:33.052Z,4.81
2023-03-04T12:13:46.807Z,4.65
2023-03-04T12:16:52.606Z,4.58
2023-03-04T12:20:13.121Z,4.54
2023-03-04T12:22:59.879Z,4.53
2023-03-04T12:26:02.135Z,4.68
2023-03-04T12:29:18.402Z,4.71
2023-03-04T12:32:00.676Z,4.64
2023-03-04T12:35:05.336Z,4.56
2023-03-04T12:38:04.020Z,4.61
2023-03-04T12:41:19.483Z,4.66
2023-03-04T12:44:08.771Z,4.62
2023-03-04T12:47:09.927Z,4.49
2023-03-04T12:50:32.233Z,4.42
2023-03-04T12:53:41.480Z,4.41
2023-03-04T12:56:24.543Z,4.49
2023-03-04T12:58:56.817Z,4.46
2023-03-04T13:02:09.323Z,4.43
2023-03-04T13:05:05.678Z,4.46
2023-03-04T13:07:46.549Z,4.45
2023-03-04T13:10:21.852Z,4.38
2023-03-04T13:12:59.403Z,4.35
2023-03-04T13:15:39.187Z,4.34
2023-03-04T13:18:35.163Z,4.35
2023-03-04T13:21:28.985Z,4.38
2023-03-04T13:24:05.120Z,4.35
2023-03-04T13:26:37.558Z,4.31
2023-03-04T13:29:24.472Z,4.25
2023-03-04T13:32:07.897Z,4.28
2023-03-04T13:34:54.147Z,4.24
2023-03-04T13:37:37.298Z,4.16
2023-03-04T13:40:35.738Z,4.21
2023-03-04T13:43:29.923Z,4.27
2023-03-04T13:46:28.018Z,4.36
2023-03-04T13:49:03.959Z,4.38
2023-03-04T13:51:44.184Z,4.31
2023-03-04T13:54:31.988Z,4.24
2023-03-04T13:57:20.302Z,4.16
2023-03-04T13:59:58.625Z,4.16
2023-03-04T14:02:32.091Z,4.10
2023-03-04T14:05:04.419Z,4.15
2023-03-04T14:07:38.234Z,4.24
2023-03-04T14:10:16.733Z,4.30
2023-03-04T14:12:55.702Z,4.36
2023-03-04T14:15:29.856Z,4.33
2023-03-04T14:18:06.920Z,4.27
2023-03-04T14:20:42.798Z,4.24
2023-03-04T14:23:33.412Z,4.19
2023-03-04T14:26:15.162Z,4.20
2023-03-04T14:28:52.759Z,4.23
2023-03-04T14:31:30.922Z,4.20
2023-03-04T14:34:04.351Z,4.16
2023-03-04T14:36:37.464Z,4.03
2023-03-04T14:39:13.939Z,3.97
2023-03-04T14:41:47.285Z,3.98
2023-03-04T14:44:39.254Z,3.99
2023-03-04T14:47:39.379Z,3.93
2023-03-04T14:50:20.657Z,3.85
2023-03-04T14:53:11.863Z,3.81
2023-03-04T14:56:04.566Z,3.88
2023-03-04T14:58:39.185Z,3.96
2023-03-04T15:01:24.424Z,4.02
2023-03-04T15:04:09.604Z,4.09
2023-03-04T15:06:50.846Z,4.09
2023-03-04T15:09:26.648Z,4.06
2023-03-04T15:12:06.108Z,3.99
2023-03-04T15:14:54.710Z,3.96
2023-03-04T15:17:42.733Z,4.00
2023-03-04T15:20:23.587Z,3.98
2023-03-04T15:23:02.956Z,3.94
2023-03-04T15:25:35.569Z,3.92
2023-03-04T15:28:12.413Z,3.95
2023-03-04T15:30:44.967Z,3.89
2023-03-04T15:33:20.791Z,3.83
2023-03-04T15:35:59.495Z,3.77
2023-03-04T15:38:31.888Z,3.77
2023-03-04T15:41:05.177Z,3.78
2023-03-04T15:43:37.721Z,3.80
2023-03-04T15:46:12.783Z,3.86
2023-03-04T15:48:45.919Z,3.89
2023-03-04T15:51:23.774Z,3.82
2023-03-04T15:53:57.997Z,3.77
2023-03-04T15:56:34.814Z,3.73
2023-03-04T15:59:13.872Z,3.68
2023-03-04T16:01:46.873Z,3.69
2023-03-04T16:04:19.335Z,3.70
2023-03-04T16:06:51.765Z,3.73
2023-03-04T16:09:24.343Z,3.72
2023-03-04T16:11:58.527Z,3.66
2023-03-04T16:14:31.293Z,3.66
2023-03-04T16:17:03.760Z,3.67
2023-03-04T16:19:36.173Z,3.69
2023-03-04T16:22:10.595Z,3.63
2023-03-04T16:24:43.738Z,3.56
2023-03-04T16:27:16.947Z,3.51
2023-03-04T16:29:49.532Z,3.50
2023-03-04T16:32:21.974Z,3.50
2023-03-04T16:34:54.587Z,3.54
2023-03-04T16:37:27.037Z,3.53
2023-03-04T16:40:00.407Z,3.52
2023-03-04T16:42:34.759Z,3.52
2023-03-04T16:45:07.731Z,3.53
2023-03-04T16:47:40.159Z,3.53
2023-03-04T16:50:23.872Z,3.46
2023-03-04T16:52:57.977Z,3.47
2023-03-04T16:55:31.156Z,3.47
2023-03-04T16:58:05.476Z,3.46
2023-03-04T17:00:40.026Z,3.46
2023-03-04T17:03:12.727Z,3.44
2023-03-04T17:05:45.596Z,3.45
2023-03-04T17:08:18.803Z,3.45
2023-03-04T17:10:52.761Z,3.41
2023-03-04T17:13:25.749Z,3.41
2023-03-04T17:16:04.409Z,3.41
2023-03-04T17:18:37.784Z,3.35
2023-03-04T17:21:13.570Z,3.29
2023-03-04T17:23:46.082Z,3.27
2023-03-04T17:26:20.186Z,3.25
2023-03-04T17:28:52.853Z,3.22
2023-03-04T17:31:25.329Z,3.23
2023-03-04T17:33:58.463Z,3.26
2023-03-04T17:36:30.964Z,3.30
2023-03-04T17:39:05.435Z,3.28
2023-03-04T17:41:38.732Z,3.28
2023-03-04T17:44:12.356Z,3.33
2023-03-04T17:46:45.875Z,3.38
2023-03-04T17:49:18.434Z,3.36
2023-03-04T17:51:51.660Z,3.35
2023-03-04T17:54:24.179Z,3.34
2023-03-04T17:56:56.543Z,3.35
2023-03-04T17:59:29.074Z,3.33
2023-03-04T18:02:02.876Z,3.29
2023-03-04T18:04:36.392Z,3.23
2023-03-04T18:07:09.751Z,3.19
2023-03-04T18:09:44.632Z,3.19
2023-03-04T18:12:17.063Z,3.20
2023-03-04T18:14:50.218Z,3.18
2023-03-04T18:17:22.936Z,3.16
2023-03-04T18:19:56.820Z,3.12
2023-03-04T18:22:29.323Z,3.16
2023-03-04T18:25:02.297Z,3.13
2023-03-04T18:27:35.652Z,3.12
2023-03-04T18:30:15.864Z,3.12
2023-03-04T18:32:52.254Z,3.13
2023-03-04T18:35:23.305Z,3.12
2023-03-04T18:37:56.676Z,3.14
2023-03-04T18:40:29.750Z,3.15
2023-03-04T18:43:03.078Z,3.15
2023-03-04T18:45:36.943Z,3.14
2023-03-04T18:48:09.511Z,3.15
2023-03-04T18:50:43.172Z,3.14
2023-03-04T18:53:16.434Z,3.12
2023-03-04T18:55:49.228Z,3.11
2023-03-04T18:58:21.652Z,3.12
2023-03-04T19:00:54.963Z,3.13
2023-03-04T19:03:27.408Z,3.12
2023-03-04T19:06:00.565Z,3.13
2023-03-04T19:08:33.647Z,3.19
2023-03-04T19:11:07.452Z,3.20
2023-03-04T19:13:40.573Z,3.17
2023-03-04T19:16:13.463Z,3.17
2023-03-04T19:18:45.928Z,3.17
2023-03-04T19:21:19.294Z,3.14
2023-03-04T19:23:51.826Z,3.08
2023-03-04T19:26:24.867Z,3.01
2023-03-04T19:28:57.323Z,2.97
2023-03-04T19:31:29.774Z,2.94
2023-03-04T19:34:02.576Z,2.93
2023-03-04T19:36:35.161Z,2.92
2023-03-04T19:39:07.654Z,2.92
2023-03-04T19:41:41.248Z,2.89
2023-03-04T19:44:14.833Z,2.90
2023-03-04T19:46:48.211Z,2.92
2023-03-04T19:49:21.388Z,2.88
2023-03-04T19:51:54.433Z,2.85
2023-03-04T19:54:26.745Z,2.86
2023-03-04T19:56:59.899Z,2.90
2023-03-04T19:59:32.963Z,2.91
2023-03-04T20:02:05.933Z,2.88
2023-03-04T20:04:38.850Z,2.87
2023-03-04T20:07:12.726Z,2.87
2023-03-04T20:09:46.350Z,2.89
2023-03-04T20:12:19.178Z,2.88
2023-03-04T20:14:52.525Z,2.93
2023-03-04T20:17:25.354Z,2.97
2023-03-04T20:19:57.817Z,3.00
2023-03-04T20:22:30.578Z,3.03
2023-03-04T20:25:02.912Z,3.06
2023-03-04T20:27:36.880Z,3.12
2023-03-04T20:30:10.970Z,3.11
2023-03-04T20:32:43.171Z,3.10
2023-03-04T20:35:15.981Z,3.13
2023-03-04T20:37:48.479Z,3.15
2023-03-04T20:40:21.541Z,3.09
2023-03-04T20:42:54.146Z,3.03
2023-03-04T20:45:26.554Z,2.80
2023-03-04T20:47:59.255Z,2.58
2023-03-04T20:50:32.280Z,2.42
2023-03-04T20:53:04.932Z,2.29
2023-03-04T20:55:37.266Z,2.22
2023-03-04T20:58:09.840Z,2.19
2023-03-04T21:00:42.270Z,2.16
2023-03-04T21:03:15.263Z,2.12
2023-03-04T21:05:48.444Z,2.09
2023-03-04T21:08:20.764Z,2.06
2023-03-04T21:10:53.302Z,2.05
2023-03-04T21:13:27.318Z,2.06
2023-03-04T21:16:00.832Z,2.06
2023-03-04T21:18:33.742Z,2.07
2023-03-04T21:21:16.961Z,2.02
2023-03-04T21:23:52.980Z,2.02
2023-03-04T21:26:25.726Z,2.00
2023-03-04T21:28:58.722Z,1.94
2023-03-04T21:31:32.345Z,1.93
2023-03-04T21:34:04.933Z,1.86
2023-03-04T21:36:37.350Z,1.84
2023-03-04T21:39:16.608Z,1.80
2023-03-04T21:41:49.542Z,1.84
2023-03-04T21:44:28.772Z,1.88
2023-03-04T21:47:00.725Z,1.88
2023-03-04T21:49:33.382Z,1.86
2023-03-04T21:52:06.540Z,1.78
2023-03-04T21:54:39.401Z,1.73
2023-03-04T21:57:13.648Z,1.67
2023-03-04T21:59:45.999Z,1.62
2023-03-04T22:02:21.385Z,1.60
2023-03-04T22:04:54.490Z,1.57
2023-03-04T22:07:26.776Z,1.59
2023-03-04T22:09:59.884Z,1.54
2023-03-04T22:12:33.376Z,1.54
2023-03-04T22:15:06.933Z,1.54
2023-03-04T22:17:39.686Z,1.49
2023-03-04T22:20:14.833Z,1.43
2023-03-04T22:22:48.891Z,1.38
2023-03-04T22:25:21.340Z,1.35
2023-03-04T22:27:53.783Z,1.36
2023-03-04T22:30:26.202Z,1.36
2023-03-04T22:32:58.651Z,1.38
2023-03-04T22:35:31.325Z,1.36
2023-03-04T22:38:03.786Z,1.33
2023-03-04T22:40:36.796Z,1.34
2023-03-04T22:43:09.340Z,1.39
2023-03-04T22:45:41.837Z,1.42
2023-03-04T22:48:14.720Z,1.37
2023-03-04T22:50:47.431Z,1.34
2023-03-04T22:53:20.243Z,1.35
2023-03-04T22:55:57.665Z,1.38
2023-03-04T22:58:30.745Z,1.39
2023-03-04T23:01:04.438Z,1.35
2023-03-04T23:03:37.940Z,1.27
2023-03-04T23:06:16.822Z,1.27
2023-03-04T23:08:50.986Z,1.17
2023-03-04T23:11:37.029Z,1.16
2023-03-04T23:14:09.642Z,1.17
2023-03-04T23:16:44.505Z,1.12
2023-03-04T23:19:17.972Z,1.04
2023-03-04T23:21:51.280Z,0.97
2023-03-04T23:24:25.706Z,0.93
2023-03-04T23:26:57.734Z,0.89
2023-03-04T23:29:29.887Z,0.86
2023-03-04T23:32:02.233Z,0.76
2023-03-04T23:34:36.775Z,0.68
2023-03-04T23:37:09.105Z,0.62
2023-03-04T23:39:41.605Z,0.58
2023-03-04T23:42:14.466Z,0.56
2023-03-04T23:44:46.964Z,0.52
2023-03-04T23:47:19.295Z,0.46
2023-03-04T23:49:51.908Z,0.42
2023-03-04T23:52:24.401Z,0.42
2023-03-04T23:54:56.857Z,0.44
2023-03-04T23:57:29.110Z,0.42
